Rocketboat — WDE4290 — position and weather

sailwx.info

Track history (hours):
 
Tides and Currents Weather Stations Pressure Air Temp Water Temp Dewpoint Dewpoint Depression Visibility Wind Speed Wind Dir Waves Ship Positions

Rocketboat

Owner: Blue and Gold Fleet, San Francisco, CA. More information available from US FCC via Universal Licensing System and Coast Guard Vessel Documentation Center.

Last reported at 2017-Oct-16 01:29 UTC. Time now 2017-Oct-17 06:12 UTC.
Position N 37°49' W 122°25'.

Length 22 m.

Type: Passenger vessel. MMSI: 367350770.

Date/timePositionNaut miles runAvg speedWind from/ knotsBaromVisibWave heightAir tempDewpointWater temp
2017-Oct-16 01:29N 37°49' W 122°25'0 0.0
2017-Oct-16 01:01N 37°49' W 122°25'0 0.0
2017-Oct-16 00:29N 37°49' W 122°25'0 0.0
2017-Oct-16 00:00N 37°49' W 122°25'0 0.3
2017-Oct-15 23:31N 37°49' W 122°25'0 0.2
2017-Oct-15 23:01N 37°49' W 122°25'2 3.2
2017-Oct-15 22:31N 37°48' W 122°23'2 3.2
2017-Oct-15 22:00N 37°49' W 122°25'0 0.0
2017-Oct-15 21:30N 37°49' W 122°25'1 3.0
2017-Oct-15 21:01N 37°48' W 122°23'2 3.0
2017-Oct-15 20:29N 37°49' W 122°25'0 0.1
2017-Oct-15 19:42N 37°49' W 122°25'1 7.5
2017-Oct-15 19:30N 37°48' W 122°23'2 2.0
2017-Oct-15 18:43N 37°49' W 122°25'0 0.0
2017-Oct-15 18:30N 37°49' W 122°25'0 0.0
2017-Oct-15 02:23N 37°49' W 122°25'0 0.0
2017-Oct-15 02:00N 37°49' W 122°25'0 0.0
2017-Oct-15 01:28N 37°49' W 122°25'0 0.0
2017-Oct-15 00:28N 37°49' W 122°25'0 0.0
2017-Oct-14 23:28N 37°49' W 122°25'0 0.0
2017-Oct-14 23:00N 37°49' W 122°25'2 3.2
2017-Oct-14 22:31N 37°48' W 122°23'2 3.2
2017-Oct-14 22:01N 37°49' W 122°25'0 0.0
2017-Oct-14 21:20N 37°49' W 122°25'1 3.6
2017-Oct-14 21:00N 37°49' W 122°24'1 2.0
2017-Oct-14 20:26N 37°49' W 122°25'0 0.2
2017-Oct-14 19:58N 37°49' W 122°25'1 2.3
2017-Oct-14 19:31N 37°49' W 122°23'1 2.2
2017-Oct-14 19:00N 37°49' W 122°25'0 0.4
2017-Oct-14 18:30N 37°49' W 122°25'0 0.0
2017-Oct-14 01:01N 37°49' W 122°25'0 0.0
2017-Oct-14 00:57N 37°49' W 122°25'0 0.2
2017-Oct-14 00:28N 37°49' W 122°25'0 0.3
2017-Oct-14 00:00N 37°49' W 122°25'0 0.6
2017-Oct-13 23:30N 37°49' W 122°25'0 0.6
2017-Oct-13 23:01N 37°49' W 122°25'2 3.5
2017-Oct-13 22:30N 37°48' W 122°23'2 3.4
2017-Oct-13 22:00N 37°49' W 122°25'0 0.0
2017-Oct-13 21:30N 37°49' W 122°25'1 3.0
2017-Oct-13 21:01N 37°48' W 122°23'1 2.9
2017-Oct-13 20:30N 37°49' W 122°25'0 0.0
2017-Oct-13 20:00N 37°49' W 122°25'2 3.0
2017-Oct-13 19:31N 37°48' W 122°23'2 3.3
2017-Oct-13 19:01N 37°49' W 122°25'0 0.3
2017-Oct-13 18:31N 37°49' W 122°25'0 0.0
2017-Oct-13 01:28N 37°49' W 122°25'0 0.0
2017-Oct-13 00:28N 37°49' W 122°25'0 0.0
2017-Oct-12 23:28N 37°49' W 122°25'0 0.1
2017-Oct-12 22:42N 37°49' W 122°25'2 8.8
2017-Oct-12 22:31N 37°47' W 122°23'2 1.3
2017-Oct-12 21:18N 37°49' W 122°25'2 5.6
2017-Oct-12 21:00N 37°48' W 122°23'2 2.9
2017-Oct-12 20:27N 37°49' W 122°25'0 0.0
2017-Oct-12 19:41N 37°49' W 122°25'2 9.5
2017-Oct-12 19:30N 37°48' W 122°23'2 3.2
2017-Oct-12 18:57N 37°49' W 122°25'0 0.3
2017-Oct-12 18:30N 37°49' W 122°25'0 0.1
2017-Oct-12 18:00N 37°49' W 122°25'0 0.0
2017-Oct-12 17:31N 37°49' W 122°25'0 0.0
2017-Oct-12 17:00N 37°49' W 122°25'0 0.0
2017-Oct-12 16:31N 37°49' W 122°25'3 6.0
2017-Oct-12 16:00N 37°48' W 122°21'3 6.6
2017-Oct-12 15:31N 37°48' W 122°17'612.5
2017-Oct-12 15:00N 37°49' W 122°25'0 0.0
2017-Oct-12 14:30N 37°49' W 122°25'0 0.0
2017-Oct-12 01:33N 37°49' W 122°25'0 0.0
2017-Oct-12 01:30N 37°49' W 122°25'0 0.0
2017-Oct-12 01:00N 37°49' W 122°25'0 0.0
2017-Oct-12 00:30N 37°49' W 122°25'0 0.0
2017-Oct-12 00:00N 37°49' W 122°25'0 0.0
2017-Oct-11 23:30N 37°49' W 122°25'0 0.0
2017-Oct-11 23:00N 37°49' W 122°25'0 0.0
2017-Oct-11 22:30N 37°49' W 122°25'0 0.0
2017-Oct-11 22:00N 37°49' W 122°25'0 0.0
2017-Oct-11 21:30N 37°49' W 122°25'0 0.0
2017-Oct-11 21:00N 37°49' W 122°25'0 0.0
2017-Oct-11 20:30N 37°49' W 122°25'0 0.0
2017-Oct-11 20:00N 37°49' W 122°25'1 3.0
2017-Oct-11 19:31N 37°48' W 122°23'1 2.9
2017-Oct-11 19:00N 37°49' W 122°25'0 0.3
2017-Oct-11 18:30N 37°49' W 122°25'0 0.3
2017-Oct-11 17:58N 37°49' W 122°25'  
2017-Oct-09 01:26N 37°49' W 122°25'0 0.0
2017-Oct-09 00:27N 37°49' W 122°25'0 0.0
2017-Oct-09 00:00N 37°49' W 122°25'0 0.0
2017-Oct-08 23:29N 37°49' W 122°25'0 0.1
2017-Oct-08 22:42N 37°49' W 122°25'2 8.2
2017-Oct-08 22:31N 37°48' W 122°23'2 1.2
2017-Oct-08 21:10N 37°49' W 122°25'2 9.4
2017-Oct-08 21:00N 37°48' W 122°23'1 2.8
2017-Oct-08 20:30N 37°49' W 122°25'0 0.0
2017-Oct-08 20:00N 37°49' W 122°25'1 2.1
2017-Oct-08 19:30N 37°48' W 122°23'1 2.2
2017-Oct-08 19:00N 37°49' W 122°25'0 0.1
2017-Oct-08 18:30N 37°49' W 122°25'0 0.0
2017-Oct-08 01:33N 37°49' W 122°25'0 0.0
2017-Oct-08 01:30N 37°49' W 122°25'0 0.0
2017-Oct-08 01:00N 37°49' W 122°25'0 0.0
2017-Oct-08 00:30N 37°49' W 122°25'0 0.0
2017-Oct-08 00:00N 37°49' W 122°25'0 0.0
2017-Oct-07 23:30N 37°49' W 122°25'0 0.1
2017-Oct-07 22:43N 37°49' W 122°25'2 9.6
2017-Oct-07 22:31N 37°48' W 122°23'2 2.2
2017-Oct-07 21:41N 37°49' W 122°25'0 0.2
2017-Oct-07 21:13N 37°49' W 122°25'2 7.9
2017-Oct-07 21:01N 37°48' W 122°23'2 2.9
2017-Oct-07 20:28N 37°49' W 122°25'0 0.2
2017-Oct-07 19:44N 37°49' W 122°25'2 9.9
2017-Oct-07 19:30N 37°48' W 122°22'2 4.3
2017-Oct-07 19:00N 37°49' W 122°25'0 0.0
2017-Oct-07 01:28N 37°49' W 122°25'0 0.0
2017-Oct-07 00:28N 37°49' W 122°25'0 0.0
2017-Oct-06 23:28N 37°49' W 122°25'0 0.1
2017-Oct-06 22:42N 37°49' W 122°25'2 8.1
2017-Oct-06 22:31N 37°48' W 122°23'2 1.2
2017-Oct-06 21:12N 37°49' W 122°25'1 5.1
2017-Oct-06 21:00N 37°49' W 122°23'1 2.1
2017-Oct-06 20:27N 37°49' W 122°25'0 0.1
2017-Oct-06 19:43N 37°49' W 122°25'2 9.2
2017-Oct-06 19:31N 37°48' W 122°22'2 2.9
2017-Oct-06 18:53N 37°49' W 122°25'0 0.1
2017-Oct-06 18:30N 37°49' W 122°25'0 0.1
2017-Oct-06 18:00N 37°49' W 122°25'0 0.0
2017-Oct-06 16:14N 37°49' W 122°25'0 0.0
2017-Oct-06 04:42N 37°49' W 122°25'0 0.0
2017-Oct-06 04:30N 37°49' W 122°25'0 0.0
2017-Oct-06 01:30N 37°49' W 122°25'  
Track history (hours):
 
Tides and Currents Weather Stations Pressure Air Temp Water Temp Dewpoint Dewpoint Depression Visibility Wind Speed Wind Dir Waves Ship Positions

Rocketboat

Owner: Blue and Gold Fleet, San Francisco, CA. More information available from US FCC via Universal Licensing System and Coast Guard Vessel Documentation Center.

Last reported at 2017-Oct-16 01:29 UTC. Time now 2017-Oct-17 06:12 UTC.
Position N 37°49' W 122°25'.

Length 22 m.

Type: Passenger vessel. MMSI: 367350770.

Date/timePositionNaut miles runAvg speedWind from/ knotsBaromVisibWave heightAir tempDewpointWater temp
2017-Oct-16 01:29N 37°49' W 122°25'0 0.0
2017-Oct-16 01:01N 37°49' W 122°25'0 0.0
2017-Oct-16 00:29N 37°49' W 122°25'0 0.0
2017-Oct-16 00:00N 37°49' W 122°25'0 0.3
2017-Oct-15 23:31N 37°49' W 122°25'0 0.2
2017-Oct-15 23:01N 37°49' W 122°25'2 3.2
2017-Oct-15 22:31N 37°48' W 122°23'2 3.2
2017-Oct-15 22:00N 37°49' W 122°25'0 0.0
2017-Oct-15 21:30N 37°49' W 122°25'1 3.0
2017-Oct-15 21:01N 37°48' W 122°23'2 3.0
2017-Oct-15 20:29N 37°49' W 122°25'0 0.1
2017-Oct-15 19:42N 37°49' W 122°25'1 7.5
2017-Oct-15 19:30N 37°48' W 122°23'2 2.0
2017-Oct-15 18:43N 37°49' W 122°25'0 0.0
2017-Oct-15 18:30N 37°49' W 122°25'0 0.0
2017-Oct-15 02:23N 37°49' W 122°25'0 0.0
2017-Oct-15 02:00N 37°49' W 122°25'0 0.0
2017-Oct-15 01:28N 37°49' W 122°25'0 0.0
2017-Oct-15 00:28N 37°49' W 122°25'0 0.0
2017-Oct-14 23:28N 37°49' W 122°25'0 0.0
2017-Oct-14 23:00N 37°49' W 122°25'2 3.2
2017-Oct-14 22:31N 37°48' W 122°23'2 3.2
2017-Oct-14 22:01N 37°49' W 122°25'0 0.0
2017-Oct-14 21:20N 37°49' W 122°25'1 3.6
2017-Oct-14 21:00N 37°49' W 122°24'1 2.0
2017-Oct-14 20:26N 37°49' W 122°25'0 0.2
2017-Oct-14 19:58N 37°49' W 122°25'1 2.3
2017-Oct-14 19:31N 37°49' W 122°23'1 2.2
2017-Oct-14 19:00N 37°49' W 122°25'0 0.4
2017-Oct-14 18:30N 37°49' W 122°25'0 0.0
2017-Oct-14 01:01N 37°49' W 122°25'0 0.0
2017-Oct-14 00:57N 37°49' W 122°25'0 0.2
2017-Oct-14 00:28N 37°49' W 122°25'0 0.3
2017-Oct-14 00:00N 37°49' W 122°25'0 0.6
2017-Oct-13 23:30N 37°49' W 122°25'0 0.6
2017-Oct-13 23:01N 37°49' W 122°25'2 3.5
2017-Oct-13 22:30N 37°48' W 122°23'2 3.4
2017-Oct-13 22:00N 37°49' W 122°25'0 0.0
2017-Oct-13 21:30N 37°49' W 122°25'1 3.0
2017-Oct-13 21:01N 37°48' W 122°23'1 2.9
2017-Oct-13 20:30N 37°49' W 122°25'0 0.0
2017-Oct-13 20:00N 37°49' W 122°25'2 3.0
2017-Oct-13 19:31N 37°48' W 122°23'2 3.3
2017-Oct-13 19:01N 37°49' W 122°25'0 0.3
2017-Oct-13 18:31N 37°49' W 122°25'0 0.0
2017-Oct-13 01:28N 37°49' W 122°25'0 0.0
2017-Oct-13 00:28N 37°49' W 122°25'0 0.0
2017-Oct-12 23:28N 37°49' W 122°25'0 0.1
2017-Oct-12 22:42N 37°49' W 122°25'2 8.8
2017-Oct-12 22:31N 37°47' W 122°23'2 1.3
2017-Oct-12 21:18N 37°49' W 122°25'2 5.6
2017-Oct-12 21:00N 37°48' W 122°23'2 2.9
2017-Oct-12 20:27N 37°49' W 122°25'0 0.0
2017-Oct-12 19:41N 37°49' W 122°25'2 9.5
2017-Oct-12 19:30N 37°48' W 122°23'2 3.2
2017-Oct-12 18:57N 37°49' W 122°25'0 0.3
2017-Oct-12 18:30N 37°49' W 122°25'0 0.1
2017-Oct-12 18:00N 37°49' W 122°25'0 0.0
2017-Oct-12 17:31N 37°49' W 122°25'0 0.0
2017-Oct-12 17:00N 37°49' W 122°25'0 0.0
2017-Oct-12 16:31N 37°49' W 122°25'3 6.0
2017-Oct-12 16:00N 37°48' W 122°21'3 6.6
2017-Oct-12 15:31N 37°48' W 122°17'612.5
2017-Oct-12 15:00N 37°49' W 122°25'0 0.0
2017-Oct-12 14:30N 37°49' W 122°25'0 0.0
2017-Oct-12 01:33N 37°49' W 122°25'0 0.0
2017-Oct-12 01:30N 37°49' W 122°25'0 0.0
2017-Oct-12 01:00N 37°49' W 122°25'0 0.0
2017-Oct-12 00:30N 37°49' W 122°25'0 0.0
2017-Oct-12 00:00N 37°49' W 122°25'0 0.0
2017-Oct-11 23:30N 37°49' W 122°25'0 0.0
2017-Oct-11 23:00N 37°49' W 122°25'0 0.0
2017-Oct-11 22:30N 37°49' W 122°25'0 0.0
2017-Oct-11 22:00N 37°49' W 122°25'0 0.0
2017-Oct-11 21:30N 37°49' W 122°25'0 0.0
2017-Oct-11 21:00N 37°49' W 122°25'0 0.0
2017-Oct-11 20:30N 37°49' W 122°25'0 0.0
2017-Oct-11 20:00N 37°49' W 122°25'1 3.0
2017-Oct-11 19:31N 37°48' W 122°23'1 2.9
2017-Oct-11 19:00N 37°49' W 122°25'0 0.3
2017-Oct-11 18:30N 37°49' W 122°25'0 0.3
2017-Oct-11 17:58N 37°49' W 122°25'  
2017-Oct-09 01:26N 37°49' W 122°25'0 0.0
2017-Oct-09 00:27N 37°49' W 122°25'0 0.0
2017-Oct-09 00:00N 37°49' W 122°25'0 0.0
2017-Oct-08 23:29N 37°49' W 122°25'0 0.1
2017-Oct-08 22:42N 37°49' W 122°25'2 8.2
2017-Oct-08 22:31N 37°48' W 122°23'2 1.2
2017-Oct-08 21:10N 37°49' W 122°25'2 9.4
2017-Oct-08 21:00N 37°48' W 122°23'1 2.8
2017-Oct-08 20:30N 37°49' W 122°25'0 0.0
2017-Oct-08 20:00N 37°49' W 122°25'1 2.1
2017-Oct-08 19:30N 37°48' W 122°23'1 2.2
2017-Oct-08 19:00N 37°49' W 122°25'0 0.1
2017-Oct-08 18:30N 37°49' W 122°25'0 0.0
2017-Oct-08 01:33N 37°49' W 122°25'0 0.0
2017-Oct-08 01:30N 37°49' W 122°25'0 0.0
2017-Oct-08 01:00N 37°49' W 122°25'0 0.0
2017-Oct-08 00:30N 37°49' W 122°25'0 0.0
2017-Oct-08 00:00N 37°49' W 122°25'0 0.0
2017-Oct-07 23:30N 37°49' W 122°25'0 0.1
2017-Oct-07 22:43N 37°49' W 122°25'2 9.6
2017-Oct-07 22:31N 37°48' W 122°23'2 2.2
2017-Oct-07 21:41N 37°49' W 122°25'0 0.2
2017-Oct-07 21:13N 37°49' W 122°25'2 7.9
2017-Oct-07 21:01N 37°48' W 122°23'2 2.9
2017-Oct-07 20:28N 37°49' W 122°25'0 0.2
2017-Oct-07 19:44N 37°49' W 122°25'2 9.9
2017-Oct-07 19:30N 37°48' W 122°22'2 4.3
2017-Oct-07 19:00N 37°49' W 122°25'0 0.0
2017-Oct-07 01:28N 37°49' W 122°25'0 0.0
2017-Oct-07 00:28N 37°49' W 122°25'0 0.0
2017-Oct-06 23:28N 37°49' W 122°25'0 0.1
2017-Oct-06 22:42N 37°49' W 122°25'2 8.1
2017-Oct-06 22:31N 37°48' W 122°23'2 1.2
2017-Oct-06 21:12N 37°49' W 122°25'1 5.1
2017-Oct-06 21:00N 37°49' W 122°23'1 2.1
2017-Oct-06 20:27N 37°49' W 122°25'0 0.1
2017-Oct-06 19:43N 37°49' W 122°25'2 9.2
2017-Oct-06 19:31N 37°48' W 122°22'2 2.9
2017-Oct-06 18:53N 37°49' W 122°25'0 0.1
2017-Oct-06 18:30N 37°49' W 122°25'0 0.1
2017-Oct-06 18:00N 37°49' W 122°25'0 0.0
2017-Oct-06 16:14N 37°49' W 122°25'0 0.0
2017-Oct-06 04:42N 37°49' W 122°25'0 0.0
2017-Oct-06 04:30N 37°49' W 122°25'0 0.0
2017-Oct-06 01:30N 37°49' W 122°25'  

Dump ship's entire track history